Terminal Aerodrome Forecast
Issued by NWS

Home | Current Version | Previous Version | Text Only | Print | Product List | Glossary On
Versions: 1 2 3 4 5 6 7 8 9 10 11 12 13 14 15 16 17 18 19 20 21 22 23 24 25 26 27 28 29 30 31 32
000
FTUS43 KDMX 301122
TAFMCW
TAF
KMCW 301122Z 3012/0112 10010KT P6SM OVC006
      TEMPO 3015/3017 13014KT SCT009
     FM301700 13015KT P6SM SCT020 BKN120
     FM010100 13013KT P6SM VCSH BKN021 OVC050
     FM010700 14013KT 4SM -SHRA VCTS BKN015CB OVC040=

USA.gov is the U.S. government's official web portal to all federal, state and local government web resources and services.